createdAt,value
2023-01-28T00:00:19.982Z,7.90
2023-01-28T00:02:21.434Z,7.13
2023-01-28T00:04:22.824Z,5.90
2023-01-28T00:06:24.272Z,7.80
2023-01-28T00:08:25.650Z,6.43
2023-01-28T00:10:27.069Z,6.78
2023-01-28T00:12:29.658Z,6.50
2023-01-28T00:14:31.082Z,8.38
2023-01-28T00:16:32.895Z,6.57
2023-01-28T00:18:34.701Z,6.90
2023-01-28T00:20:36.279Z,6.35
2023-01-28T00:22:37.641Z,6.50
2023-01-28T00:24:38.997Z,8.73
2023-01-28T00:26:40.332Z,6.75
2023-01-28T00:28:42.650Z,7.18
2023-01-28T00:30:44.061Z,8.45
2023-01-28T00:32:45.462Z,9.63
2023-01-28T00:34:46.896Z,7.68
2023-01-28T00:39:27.029Z,8.18
2023-01-28T00:41:29.687Z,7.20
2023-01-28T00:43:31.084Z,5.80
2023-01-28T00:45:32.434Z,9.10
2023-01-28T00:47:33.777Z,9.13
2023-01-28T00:49:35.219Z,9.52
2023-01-28T00:51:36.990Z,8.43
2023-01-28T00:53:39.754Z,10.38
2023-01-28T00:55:41.128Z,7.43
2023-01-28T00:57:42.498Z,11.13
2023-01-28T00:59:44.561Z,7.00
2023-01-28T01:01:46.049Z,6.03
2023-01-28T01:03:48.346Z,5.97
2023-01-28T01:05:49.703Z,5.63
2023-01-28T01:07:51.084Z,5.70
2023-01-28T01:09:52.456Z,5.28
2023-01-28T01:11:53.808Z,6.10
2023-01-28T01:13:59.626Z,8.60
2023-01-28T01:16:06.675Z,7.72
2023-01-28T01:18:08.036Z,7.22
2023-01-28T01:20:15.308Z,6.38
2023-01-28T01:22:16.727Z,6.82
2023-01-28T01:24:18.216Z,7.85
2023-01-28T01:26:20.409Z,7.15
2023-01-28T01:28:22.629Z,7.22
2023-01-28T01:30:24.736Z,8.40
2023-01-28T01:32:29.707Z,9.13
2023-01-28T01:34:31.155Z,7.65
2023-01-28T01:36:32.607Z,8.02
2023-01-28T01:38:34.073Z,11.32
2023-01-28T01:40:37.126Z,6.95
2023-01-28T01:42:38.517Z,6.15
2023-01-28T01:45:00.011Z,6.60
2023-01-28T01:47:01.470Z,5.05
2023-01-28T01:49:19.445Z,6.10
2023-01-28T01:51:26.314Z,7.55
2023-01-28T01:53:29.577Z,6.05
2023-01-28T01:55:38.130Z,5.93
2023-01-28T01:57:40.568Z,7.30
2023-01-28T01:59:43.478Z,5.55
2023-01-28T02:01:48.325Z,5.72
2023-01-28T02:04:22.912Z,6.70
2023-01-28T02:06:25.101Z,5.65
2023-01-28T02:08:27.901Z,7.13
2023-01-28T02:10:29.333Z,6.05
2023-01-28T02:12:36.766Z,8.20
2023-01-28T02:14:46.390Z,5.65
2023-01-28T02:16:47.912Z,6.30
2023-01-28T02:18:49.353Z,5.32
2023-01-28T02:21:24.378Z,6.63
2023-01-28T02:24:00.710Z,7.30
2023-01-28T02:26:23.760Z,5.13
2023-01-28T02:28:37.204Z,6.85
2023-01-28T02:30:50.644Z,5.63
2023-01-28T02:32:59.222Z,6.03
2023-01-28T02:35:03.354Z,5.72
2023-01-28T02:37:12.842Z,5.53
2023-01-28T02:39:20.419Z,5.68
2023-01-28T02:41:28.250Z,6.28
2023-01-28T02:43:40.853Z,7.13
2023-01-28T02:46:00.613Z,5.28
2023-01-28T02:50:09.595Z,5.53
2023-01-28T02:52:18.645Z,6.13
2023-01-28T02:54:35.908Z,4.97
2023-01-28T02:56:45.505Z,6.28
2023-01-28T02:59:30.874Z,5.80
2023-01-28T03:01:39.424Z,6.28
2023-01-28T03:03:58.622Z,5.93
2023-01-28T03:06:07.909Z,6.13
2023-01-28T03:08:29.350Z,4.82
2023-01-28T03:10:31.004Z,6.65
2023-01-28T03:12:53.951Z,6.57
2023-01-28T03:15:26.702Z,6.68
2023-01-28T03:17:54.622Z,7.18
2023-01-28T03:20:14.948Z,6.32
2023-01-28T03:22:35.369Z,6.50
2023-01-28T03:25:06.857Z,7.70
2023-01-28T03:27:38.301Z,6.20
2023-01-28T03:30:00.529Z,7.90
2023-01-28T03:32:22.543Z,6.55
2023-01-28T03:34:42.842Z,8.65
2023-01-28T03:36:53.203Z,7.32
2023-01-28T03:38:54.650Z,10.07
2023-01-28T03:41:00.329Z,7.38
2023-01-28T03:43:01.763Z,7.72
2023-01-28T03:45:05.284Z,7.90
2023-01-28T03:47:08.833Z,9.40
2023-01-28T03:49:10.218Z,8.50
2023-01-28T03:51:12.075Z,8.43
2023-01-28T03:53:16.956Z,8.18
2023-01-28T03:55:18.528Z,6.70
2023-01-28T03:57:25.727Z,7.18
2023-01-28T04:01:28.362Z,8.23
2023-01-28T04:03:29.758Z,6.47
2023-01-28T04:05:31.235Z,7.60
2023-01-28T04:07:33.610Z,11.13
2023-01-28T04:09:35.944Z,9.55
2023-01-28T04:11:37.292Z,9.32
2023-01-28T04:13:38.676Z,10.05
2023-01-28T04:15:40.037Z,8.80
2023-01-28T04:17:46.164Z,7.93
2023-01-28T04:19:47.537Z,10.38
2023-01-28T04:21:49.897Z,9.43
2023-01-28T04:23:51.306Z,9.63
2023-01-28T04:25:52.800Z,11.38
2023-01-28T04:27:54.335Z,10.32
2023-01-28T04:29:55.721Z,10.02
2023-01-28T04:31:57.197Z,9.73
2023-01-28T04:33:58.677Z,12.13
2023-01-28T04:36:00.075Z,8.90
2023-01-28T04:38:01.585Z,9.43
2023-01-28T04:40:03.189Z,9.45
2023-01-28T04:42:04.784Z,10.30
2023-01-28T04:44:06.286Z,9.75
2023-01-28T04:46:07.807Z,9.25
2023-01-28T04:48:09.276Z,11.30
2023-01-28T04:50:10.680Z,10.25
2023-01-28T04:52:12.065Z,13.63
2023-01-28T04:54:13.417Z,11.23
2023-01-28T04:56:14.866Z,10.35
2023-01-28T04:58:16.264Z,12.10
2023-01-28T05:00:18.215Z,10.25
2023-01-28T05:02:19.717Z,12.27
2023-01-28T05:04:21.268Z,9.52
2023-01-28T05:06:22.635Z,13.18
2023-01-28T05:08:24.028Z,12.20
2023-01-28T05:10:27.173Z,10.77
2023-01-28T05:12:29.635Z,12.15
2023-01-28T05:14:30.986Z,11.02
2023-01-28T05:16:34.060Z,10.32
2023-01-28T05:18:35.440Z,11.48
2023-01-28T05:20:36.811Z,11.30
2023-01-28T05:22:38.491Z,9.65
2023-01-28T05:24:39.883Z,11.50
2023-01-28T05:26:41.492Z,11.05
2023-01-28T05:28:42.877Z,12.30
2023-01-28T05:30:44.321Z,10.15
2023-01-28T05:32:46.133Z,11.10
2023-01-28T05:34:47.709Z,11.88
2023-01-28T05:36:49.072Z,13.45
2023-01-28T05:38:50.589Z,9.25
2023-01-28T05:40:51.955Z,14.32
2023-01-28T05:42:53.385Z,11.75
2023-01-28T05:44:54.765Z,11.38
2023-01-28T05:46:56.168Z,11.27
2023-01-28T05:48:57.581Z,10.18
2023-01-28T05:51:00.019Z,11.70
2023-01-28T05:53:01.473Z,14.50
2023-01-28T05:55:03.061Z,10.68
2023-01-28T05:57:04.517Z,11.38
2023-01-28T05:59:05.871Z,10.40
2023-01-28T06:01:07.263Z,10.15
2023-01-28T06:03:08.908Z,9.60
2023-01-28T06:05:10.732Z,11.30
2023-01-28T06:07:13.268Z,9.93
2023-01-28T06:09:14.663Z,10.23
2023-01-28T06:11:16.488Z,11.85
2023-01-28T06:13:18.497Z,12.85
2023-01-28T06:15:19.972Z,9.55
2023-01-28T06:17:21.357Z,11.32
2023-01-28T06:19:22.725Z,9.50
2023-01-28T06:21:24.132Z,11.20
2023-01-28T06:23:25.495Z,9.43
2023-01-28T06:25:27.181Z,10.05
2023-01-28T06:27:28.725Z,9.93
2023-01-28T06:29:30.271Z,8.43
2023-01-28T06:31:31.648Z,9.52
2023-01-28T06:33:33.253Z,8.70
2023-01-28T06:35:35.771Z,8.95
2023-01-28T06:37:37.160Z,8.68
2023-01-28T06:39:38.500Z,8.02
2023-01-28T06:41:39.915Z,10.77
2023-01-28T06:43:41.257Z,10.85
2023-01-28T06:45:42.653Z,8.00
2023-01-28T06:47:44.011Z,9.77
2023-01-28T06:49:45.523Z,9.20
2023-01-28T06:51:46.876Z,9.30
2023-01-28T06:53:48.282Z,8.30
2023-01-28T06:55:49.894Z,10.30
2023-01-28T06:57:51.258Z,9.82
2023-01-28T06:59:52.625Z,11.75
2023-01-28T07:01:54.024Z,7.57
2023-01-28T07:03:56.845Z,10.23
2023-01-28T07:05:58.227Z,9.20
2023-01-28T07:07:59.629Z,8.52
2023-01-28T07:10:01.174Z,10.00
2023-01-28T07:12:05.198Z,7.50
2023-01-28T07:14:06.577Z,9.07
2023-01-28T07:16:08.030Z,9.15
2023-01-28T07:18:09.416Z,10.32
2023-01-28T07:20:13.728Z,9.73
2023-01-28T07:22:15.364Z,9.90
2023-01-28T07:24:16.850Z,7.85
2023-01-28T07:26:20.018Z,7.20
2023-01-28T07:28:21.583Z,8.48
2023-01-28T07:30:24.105Z,10.18
2023-01-28T07:32:29.483Z,7.70
2023-01-28T07:34:30.865Z,10.35
2023-01-28T07:36:32.220Z,8.80
2023-01-28T07:38:33.738Z,7.68
2023-01-28T07:40:35.172Z,8.18
2023-01-28T07:42:36.535Z,9.38
2023-01-28T07:44:38.598Z,11.27
2023-01-28T07:46:39.963Z,9.85
2023-01-28T07:48:41.329Z,8.43
2023-01-28T07:50:42.859Z,9.73
2023-01-28T07:52:45.754Z,7.05
2023-01-28T07:54:47.153Z,7.20
2023-01-28T07:56:48.568Z,7.97
2023-01-28T07:58:50.762Z,7.50
2023-01-28T08:00:57.367Z,8.45
2023-01-28T08:03:07.780Z,7.70
2023-01-28T08:05:09.460Z,6.72
2023-01-28T08:07:10.851Z,7.15
2023-01-28T08:09:12.252Z,6.82
2023-01-28T08:11:13.622Z,6.70
2023-01-28T08:13:16.521Z,9.82
2023-01-28T08:15:17.919Z,8.60
2023-01-28T08:17:19.306Z,7.85
2023-01-28T08:19:21.781Z,7.88
2023-01-28T08:21:23.265Z,7.60
2023-01-28T08:23:26.857Z,8.23
2023-01-28T08:25:28.261Z,8.45
2023-01-28T08:27:29.641Z,7.72
2023-01-28T08:29:31.027Z,7.35
2023-01-28T08:31:36.176Z,7.68
2023-01-28T08:33:37.763Z,7.90
2023-01-28T08:35:39.816Z,9.50
2023-01-28T08:37:41.185Z,9.48
2023-01-28T08:39:44.300Z,8.10
2023-01-28T08:41:46.925Z,8.63
2023-01-28T08:43:48.803Z,8.77
2023-01-28T08:45:50.519Z,7.88
2023-01-28T08:47:54.530Z,8.77
2023-01-28T08:49:55.872Z,9.13
2023-01-28T08:51:57.274Z,7.53
2023-01-28T08:53:58.606Z,7.50
2023-01-28T08:56:00.363Z,8.27
2023-01-28T08:58:03.357Z,8.43
2023-01-28T09:00:06.131Z,8.18
2023-01-28T09:02:10.585Z,6.95
2023-01-28T09:04:15.597Z,7.20
2023-01-28T09:06:17.134Z,7.97
2023-01-28T09:08:18.521Z,10.50
2023-01-28T09:10:22.533Z,6.95
2023-01-28T09:12:24.109Z,8.05
2023-01-28T09:14:25.544Z,8.75
2023-01-28T09:16:27.224Z,8.45
2023-01-28T09:18:28.604Z,8.50
2023-01-28T09:20:30.286Z,9.25
2023-01-28T09:22:33.001Z,6.95
2023-01-28T09:24:34.378Z,7.63
2023-01-28T09:26:35.744Z,7.00
2023-01-28T09:28:38.438Z,7.20
2023-01-28T09:30:40.082Z,6.00
2023-01-28T09:32:41.577Z,7.20
2023-01-28T09:34:44.405Z,5.95
2023-01-28T09:36:46.051Z,7.75
2023-01-28T09:38:47.432Z,7.00
2023-01-28T09:40:48.876Z,7.03
2023-01-28T09:43:05.076Z,8.00
2023-01-28T09:45:09.810Z,7.30
2023-01-28T09:47:46.351Z,7.80
2023-01-28T09:49:51.563Z,6.82
2023-01-28T09:51:55.748Z,7.57
2023-01-28T09:54:03.564Z,6.78
2023-01-28T09:56:12.526Z,6.78
2023-01-28T09:58:17.691Z,8.10
2023-01-28T10:00:23.000Z,7.88
2023-01-28T10:02:36.664Z,9.75
2023-01-28T10:04:59.188Z,5.72
2023-01-28T10:07:27.734Z,6.85
2023-01-28T10:09:45.544Z,7.80
2023-01-28T10:12:26.285Z,7.30
2023-01-28T10:14:45.174Z,6.93
2023-01-28T10:17:07.168Z,6.20
2023-01-28T10:19:30.117Z,6.10
2023-01-28T10:21:39.086Z,7.40
2023-01-28T10:23:58.394Z,6.88
2023-01-28T10:26:03.695Z,8.05
2023-01-28T10:28:14.860Z,6.70
2023-01-28T10:30:27.978Z,7.43
2023-01-28T10:32:34.704Z,7.65
2023-01-28T10:34:37.240Z,7.78
2023-01-28T10:36:38.982Z,9.40
2023-01-28T10:38:40.464Z,7.72
2023-01-28T10:40:43.333Z,8.38
2023-01-28T10:42:45.714Z,7.15
2023-01-28T10:44:47.855Z,7.63
2023-01-28T10:46:50.616Z,7.93
2023-01-28T10:48:57.427Z,7.13
2023-01-28T10:51:02.482Z,7.40
2023-01-28T10:53:05.852Z,9.25
2023-01-28T10:55:14.483Z,9.50
2023-01-28T10:57:18.920Z,8.73
2023-01-28T10:59:27.699Z,7.63
2023-01-28T11:01:47.691Z,7.53
2023-01-28T11:03:55.282Z,6.20
2023-01-28T11:05:58.504Z,7.18
2023-01-28T11:08:19.721Z,8.70
2023-01-28T11:10:33.796Z,6.72
2023-01-28T11:12:35.219Z,7.20
2023-01-28T11:14:36.654Z,6.28
2023-01-28T11:16:40.143Z,5.70
2023-01-28T11:18:48.039Z,7.78
2023-01-28T11:20:53.426Z,7.40
2023-01-28T11:22:55.544Z,8.50
2023-01-28T11:24:57.092Z,6.00
2023-01-28T11:27:09.453Z,9.18
2023-01-28T11:29:30.642Z,7.13
2023-01-28T11:31:41.699Z,6.72
2023-01-28T11:34:00.439Z,7.45
2023-01-28T11:36:13.765Z,12.30
2023-01-28T11:38:19.416Z,10.75
2023-01-28T11:40:21.921Z,8.52
2023-01-28T11:42:24.104Z,11.52
2023-01-28T11:44:27.072Z,6.95
2023-01-28T11:46:53.385Z,7.22
2023-01-28T11:49:26.986Z,12.93
2023-01-28T11:51:47.403Z,7.95
2023-01-28T11:54:05.211Z,8.75
2023-01-28T11:56:16.961Z,10.10
2023-01-28T11:58:40.625Z,8.68
2023-01-28T12:01:02.048Z,10.70
2023-01-28T12:03:27.977Z,11.20
2023-01-28T12:06:06.858Z,8.82
2023-01-28T12:08:23.147Z,9.35
2023-01-28T12:10:52.206Z,10.07
2023-01-28T12:13:05.653Z,9.68
2023-01-28T12:15:46.832Z,12.88
2023-01-28T12:18:29.660Z,10.25
2023-01-28T12:20:47.446Z,10.90
2023-01-28T12:22:54.656Z,11.63
2023-01-28T12:27:38.599Z,12.55
2023-01-28T12:29:54.837Z,12.02
2023-01-28T12:32:08.463Z,13.75
2023-01-28T12:34:21.792Z,13.75
2023-01-28T12:36:47.729Z,14.60
2023-01-28T12:39:02.065Z,12.90
2023-01-28T12:41:22.170Z,13.65
2023-01-28T12:43:23.545Z,13.18
2023-01-28T12:45:33.469Z,12.20
2023-01-28T12:47:39.421Z,12.25
2023-01-28T12:49:53.798Z,13.85
2023-01-28T12:51:55.411Z,12.85
2023-01-28T12:54:15.110Z,13.23
2023-01-28T12:56:32.006Z,10.10
2023-01-28T12:58:43.199Z,14.27
2023-01-28T13:00:54.808Z,13.35
2023-01-28T13:03:18.423Z,14.38
2023-01-28T13:05:31.214Z,14.77
2023-01-28T13:07:39.362Z,12.82
2023-01-28T13:09:49.929Z,12.52
2023-01-28T13:11:54.339Z,12.82
2023-01-28T13:13:55.790Z,13.15
2023-01-28T13:15:57.762Z,13.32
2023-01-28T13:18:02.502Z,12.02
2023-01-28T13:20:15.638Z,11.90
2023-01-28T13:22:35.078Z,11.50
2023-01-28T13:24:36.519Z,11.50
2023-01-28T13:26:40.995Z,12.25
2023-01-28T13:28:42.525Z,10.35
2023-01-28T13:30:49.842Z,8.68
2023-01-28T13:33:03.287Z,12.45
2023-01-28T13:35:07.980Z,10.32
2023-01-28T13:37:32.739Z,10.68
2023-01-28T13:39:35.784Z,9.43
2023-01-28T13:41:48.858Z,8.25
2023-01-28T13:43:50.314Z,10.40
2023-01-28T13:46:03.639Z,9.48
2023-01-28T13:48:30.855Z,8.52
2023-01-28T13:50:39.357Z,10.52
2023-01-28T13:52:49.181Z,11.55
2023-01-28T13:54:50.526Z,10.55
2023-01-28T13:57:01.265Z,11.38
2023-01-28T13:59:21.165Z,8.95
2023-01-28T14:01:43.714Z,10.10
2023-01-28T14:04:15.652Z,9.32
2023-01-28T14:06:24.004Z,10.60
2023-01-28T14:08:54.237Z,11.48
2023-01-28T14:11:24.542Z,9.73
2023-01-28T14:13:25.885Z,11.57
2023-01-28T14:15:49.238Z,9.70
2023-01-28T14:17:56.305Z,10.48
2023-01-28T14:19:59.720Z,13.18
2023-01-28T14:22:09.771Z,11.57
2023-01-28T14:24:16.785Z,11.70
2023-01-28T14:26:37.040Z,13.75
2023-01-28T14:28:56.263Z,11.80
2023-01-28T14:31:09.118Z,15.30
2023-01-28T14:33:12.187Z,14.75
2023-01-28T14:35:20.163Z,12.52
2023-01-28T14:37:25.863Z,14.60
2023-01-28T14:39:33.506Z,12.57
2023-01-28T14:41:35.178Z,13.27
2023-01-28T14:43:38.001Z,13.07
2023-01-28T14:45:48.649Z,12.20
2023-01-28T14:48:00.311Z,14.98
2023-01-28T14:50:18.300Z,12.02
2023-01-28T14:52:42.813Z,11.65
2023-01-28T14:55:19.588Z,12.50
2023-01-28T14:57:44.886Z,12.38
2023-01-28T14:59:51.219Z,9.50
2023-01-28T15:01:56.755Z,12.88
2023-01-28T15:03:58.319Z,16.48
2023-01-28T15:06:04.136Z,10.95
2023-01-28T15:08:05.915Z,12.50
2023-01-28T15:10:16.528Z,12.65
2023-01-28T15:12:18.368Z,11.07
2023-01-28T15:14:26.817Z,11.38
2023-01-28T15:16:31.320Z,14.52
2023-01-28T15:18:42.337Z,12.95
2023-01-28T15:20:46.197Z,15.48
2023-01-28T15:22:47.765Z,13.13
2023-01-28T15:24:49.247Z,11.82
2023-01-28T15:26:51.115Z,13.95
2023-01-28T15:28:55.550Z,12.38
2023-01-28T15:30:59.469Z,13.73
2023-01-28T15:33:14.209Z,13.27
2023-01-28T15:35:16.214Z,12.68
2023-01-28T15:37:18.931Z,11.52
2023-01-28T15:39:22.711Z,12.85
2023-01-28T15:41:28.977Z,13.93
2023-01-28T15:43:35.182Z,16.38
2023-01-28T15:45:36.642Z,17.63
2023-01-28T15:47:38.193Z,15.23
2023-01-28T15:49:45.228Z,14.18
2023-01-28T15:51:53.539Z,13.18
2023-01-28T15:54:06.758Z,13.02
2023-01-28T15:56:11.461Z,14.93
2023-01-28T15:58:33.430Z,13.35
2023-01-28T16:00:34.970Z,15.85
2023-01-28T16:02:43.684Z,15.15
2023-01-28T16:04:56.934Z,13.40
2023-01-28T16:07:04.345Z,12.88
2023-01-28T16:09:15.682Z,13.52
2023-01-28T16:11:33.674Z,16.92
2023-01-28T16:13:36.645Z,12.48
2023-01-28T16:15:39.646Z,16.55
2023-01-28T16:17:47.227Z,14.82
2023-01-28T16:19:58.795Z,17.13
2023-01-28T16:22:01.470Z,15.35
2023-01-28T16:24:07.553Z,15.02
2023-01-28T16:26:24.282Z,13.10
2023-01-28T16:28:25.948Z,15.50
2023-01-28T16:30:28.177Z,13.93
2023-01-28T16:32:35.622Z,14.05
2023-01-28T16:34:37.272Z,15.80
2023-01-28T16:36:39.534Z,15.80
2023-01-28T16:38:41.063Z,16.98
2023-01-28T16:40:46.873Z,17.48
2023-01-28T16:42:48.999Z,17.63
2023-01-28T16:44:50.509Z,21.05
2023-01-28T16:46:51.998Z,28.50
2023-01-28T16:48:53.935Z,24.52
2023-01-28T16:50:55.512Z,29.27
2023-01-28T16:52:58.030Z,31.10
2023-01-28T16:54:59.457Z,29.08
2023-01-28T16:57:01.021Z,24.27
2023-01-28T16:59:02.589Z,21.02
2023-01-28T17:01:04.104Z,20.33
2023-01-28T17:03:06.029Z,25.60
2023-01-28T17:05:08.112Z,22.42
2023-01-28T17:07:09.558Z,21.60
2023-01-28T17:09:14.669Z,18.08
2023-01-28T17:11:16.087Z,24.67
2023-01-28T17:13:17.452Z,22.77
2023-01-28T17:15:19.372Z,22.58
2023-01-28T17:17:21.453Z,21.50
2023-01-28T17:19:22.844Z,21.15
2023-01-28T17:21:24.290Z,23.90
2023-01-28T17:23:26.197Z,19.35
2023-01-28T17:25:27.555Z,22.55
2023-01-28T17:27:28.921Z,24.27
2023-01-28T17:29:30.259Z,23.45
2023-01-28T17:31:31.938Z,24.60
2023-01-28T17:33:33.737Z,21.80
2023-01-28T17:35:37.235Z,21.92
2023-01-28T17:37:38.948Z,22.27
2023-01-28T17:39:40.400Z,23.55
2023-01-28T17:41:42.087Z,23.15
2023-01-28T17:43:44.166Z,23.95
2023-01-28T17:45:48.500Z,24.48
2023-01-28T17:47:50.325Z,26.73
2023-01-28T17:49:52.274Z,22.73
2023-01-28T17:51:54.077Z,26.48
2023-01-28T17:53:56.231Z,24.00
2023-01-28T17:55:57.817Z,29.73
2023-01-28T17:57:59.311Z,26.90
2023-01-28T18:00:01.219Z,27.90
2023-01-28T18:02:03.156Z,29.27
2023-01-28T18:04:04.766Z,28.40
2023-01-28T18:06:07.261Z,25.90
2023-01-28T18:08:09.416Z,25.05
2023-01-28T18:10:12.623Z,25.33
2023-01-28T18:12:15.876Z,29.20
2023-01-28T18:14:17.232Z,26.17
2023-01-28T18:18:46.917Z,24.45
2023-01-28T18:20:59.772Z,23.67
2023-01-28T18:23:01.858Z,24.50
2023-01-28T18:25:03.923Z,25.40
2023-01-28T18:27:05.696Z,27.90
2023-01-28T18:29:07.183Z,24.25
2023-01-28T18:31:08.694Z,25.65
2023-01-28T18:33:10.155Z,25.05
2023-01-28T18:35:12.516Z,28.45
2023-01-28T18:37:13.992Z,24.02
2023-01-28T18:39:22.356Z,26.15
2023-01-28T18:41:23.727Z,25.48
2023-01-28T18:43:26.504Z,24.20
2023-01-28T18:45:28.333Z,25.35
2023-01-28T18:47:29.777Z,25.10
2023-01-28T18:49:31.647Z,24.92
2023-01-28T18:51:33.129Z,25.77
2023-01-28T18:53:34.859Z,28.60
2023-01-28T18:55:36.201Z,28.10
2023-01-28T18:57:38.878Z,28.25
2023-01-28T18:59:40.233Z,28.05
2023-01-28T19:01:43.675Z,35.60
2023-01-28T19:03:45.025Z,29.80
2023-01-28T19:05:46.779Z,27.75
2023-01-28T19:07:48.182Z,31.45
2023-01-28T19:09:50.247Z,29.42
2023-01-28T19:11:51.790Z,28.20
2023-01-28T19:13:53.539Z,29.30
2023-01-28T19:15:55.955Z,29.58
2023-01-28T19:17:57.684Z,30.88
2023-01-28T19:19:59.033Z,26.77
2023-01-28T19:22:00.850Z,29.70
2023-01-28T19:24:09.573Z,27.02
2023-01-28T19:26:11.000Z,27.45
2023-01-28T19:28:12.728Z,29.42
2023-01-28T19:30:14.582Z,26.38
2023-01-28T19:32:19.570Z,28.67
2023-01-28T19:34:21.437Z,32.35
2023-01-28T19:36:25.955Z,34.80
2023-01-28T19:38:27.982Z,27.48
2023-01-28T19:40:30.738Z,27.00
2023-01-28T19:42:32.121Z,27.15
2023-01-28T19:47:02.239Z,26.92
2023-01-28T19:49:06.184Z,30.73
2023-01-28T19:51:08.813Z,29.23
2023-01-28T19:53:10.335Z,27.15
2023-01-28T19:55:12.933Z,29.38
2023-01-28T19:57:14.935Z,28.35
2023-01-28T19:59:17.055Z,26.70
2023-01-28T20:01:21.251Z,27.98
2023-01-28T20:03:22.644Z,27.33
2023-01-28T20:05:24.070Z,27.90
2023-01-28T20:07:25.419Z,32.47
2023-01-28T20:09:27.213Z,32.97
2023-01-28T20:11:29.088Z,31.02
2023-01-28T20:13:32.585Z,33.33
2023-01-28T20:15:34.440Z,29.15
2023-01-28T20:17:36.595Z,27.50
2023-01-28T20:19:38.381Z,29.35
2023-01-28T20:21:40.594Z,31.90
2023-01-28T20:23:42.378Z,27.40
2023-01-28T20:25:44.195Z,27.85
2023-01-28T20:27:48.208Z,27.75
2023-01-28T20:29:49.865Z,30.27
2023-01-28T20:32:09.321Z,29.80
2023-01-28T20:34:16.320Z,29.58
2023-01-28T20:36:18.108Z,30.92
2023-01-28T20:38:20.260Z,31.42
2023-01-28T20:40:21.642Z,31.90
2023-01-28T20:42:23.684Z,25.73
2023-01-28T20:44:26.593Z,27.75
2023-01-28T20:46:33.273Z,28.27
2023-01-28T20:48:35.089Z,32.42
2023-01-28T20:50:36.487Z,31.05
2023-01-28T20:52:37.900Z,33.53
2023-01-28T20:54:39.307Z,30.50
2023-01-28T20:56:41.025Z,35.03
2023-01-28T20:58:44.094Z,30.13
2023-01-28T21:00:46.638Z,32.00
2023-01-28T21:02:48.062Z,25.98
2023-01-28T21:04:49.731Z,32.88
2023-01-28T21:06:51.160Z,32.88
2023-01-28T21:08:53.133Z,30.60
2023-01-28T21:10:54.978Z,34.40
2023-01-28T21:12:56.943Z,29.67
2023-01-28T21:14:58.713Z,34.85
2023-01-28T21:17:00.788Z,37.03
2023-01-28T21:19:02.298Z,30.92
2023-01-28T21:21:05.981Z,36.13
2023-01-28T21:23:07.373Z,31.75
2023-01-28T21:25:09.093Z,35.75
2023-01-28T21:27:10.542Z,36.60
2023-01-28T21:29:14.535Z,34.45
2023-01-28T21:31:18.477Z,33.55
2023-01-28T21:33:19.874Z,32.30
2023-01-28T21:35:21.307Z,34.78
2023-01-28T21:37:22.723Z,35.30
2023-01-28T21:41:49.575Z,31.55
2023-01-28T21:43:53.753Z,33.50
2023-01-28T21:45:56.212Z,38.83
2023-01-28T21:47:57.924Z,34.40
2023-01-28T21:50:00.651Z,32.83
2023-01-28T21:52:02.093Z,35.53
2023-01-28T21:54:06.209Z,33.75
2023-01-28T21:56:09.864Z,30.55
2023-01-28T21:58:30.029Z,33.70
2023-01-28T22:00:31.411Z,33.47
2023-01-28T22:02:33.191Z,32.22
2023-01-28T22:04:40.732Z,36.78
2023-01-28T22:06:42.949Z,31.90
2023-01-28T22:08:45.133Z,35.97
2023-01-28T22:10:46.467Z,38.88
2023-01-28T22:12:48.527Z,39.13
2023-01-28T22:14:50.280Z,39.90
2023-01-28T22:16:51.885Z,34.58
2023-01-28T22:18:53.499Z,35.40
2023-01-28T22:21:03.661Z,33.70
2023-01-28T22:23:05.387Z,35.35
2023-01-28T22:25:07.373Z,35.63
2023-01-28T22:27:09.498Z,32.47
2023-01-28T22:29:12.300Z,32.35
2023-01-28T22:31:15.991Z,32.40
2023-01-28T22:33:17.896Z,30.50
2023-01-28T22:35:19.776Z,31.58
2023-01-28T22:37:21.522Z,34.47
2023-01-28T22:39:22.995Z,30.35
2023-01-28T22:41:24.478Z,31.55
2023-01-28T22:43:26.491Z,35.50
2023-01-28T22:45:28.165Z,36.80
2023-01-28T22:47:29.555Z,34.10
2023-01-28T22:49:31.507Z,35.22
2023-01-28T22:51:35.108Z,33.40
2023-01-28T22:53:36.536Z,34.95
2023-01-28T22:55:40.043Z,32.45
2023-01-28T22:57:41.496Z,35.38
2023-01-28T22:59:51.193Z,35.58
2023-01-28T23:01:59.985Z,40.88
2023-01-28T23:04:01.576Z,35.00
2023-01-28T23:06:04.860Z,34.47
2023-01-28T23:08:12.834Z,34.95
2023-01-28T23:10:14.868Z,33.63
2023-01-28T23:12:16.860Z,36.53
2023-01-28T23:14:36.797Z,37.67
2023-01-28T23:16:57.172Z,32.35
2023-01-28T23:19:17.028Z,35.78
2023-01-28T23:21:38.493Z,36.08
2023-01-28T23:23:58.252Z,38.08
2023-01-28T23:26:00.167Z,36.80
2023-01-28T23:28:01.604Z,38.25
2023-01-28T23:30:04.254Z,38.80
2023-01-28T23:32:12.247Z,33.58
2023-01-28T23:34:16.156Z,31.92
2023-01-28T23:36:18.683Z,34.22
2023-01-28T23:38:20.280Z,36.08
2023-01-28T23:40:24.518Z,34.00
2023-01-28T23:42:25.958Z,36.72
2023-01-28T23:44:28.118Z,33.95
2023-01-28T23:46:38.923Z,34.10
2023-01-28T23:48:41.030Z,34.63
2023-01-28T23:50:42.442Z,34.38
2023-01-28T23:52:43.824Z,31.27
2023-01-28T23:54:45.330Z,30.88
2023-01-28T23:56:46.742Z,35.10
2023-01-28T23:58:48.190Z,33.17
